sensor_id;sensor_type;location;lat;lon;timestamp;P1;durP1;ratioP1;P2;durP2;ratioP2
16766;SDS011;8501;49.926;8.404;2023-05-28T00:00:24;7.85;;;5.03;;
16766;SDS011;8501;49.926;8.404;2023-05-28T00:02:51;10.65;;;5.25;;
16766;SDS011;8501;49.926;8.404;2023-05-28T00:05:17;11.45;;;5.63;;
16766;SDS011;8501;49.926;8.404;2023-05-28T00:07:42;9.25;;;5.40;;
16766;SDS011;8501;49.926;8.404;2023-05-28T00:10:08;9.65;;;5.43;;
16766;SDS011;8501;49.926;8.404;2023-05-28T00:12:34;8.05;;;4.93;;
16766;SDS011;8501;49.926;8.404;2023-05-28T00:14:59;7.28;;;5.00;;
16766;SDS011;8501;49.926;8.404;2023-05-28T00:17:25;9.35;;;5.13;;
16766;SDS011;8501;49.926;8.404;2023-05-28T00:19:50;9.05;;;5.13;;
16766;SDS011;8501;49.926;8.404;2023-05-28T00:22:16;10.07;;;5.30;;
16766;SDS011;8501;49.926;8.404;2023-05-28T00:24:42;8.85;;;5.25;;
16766;SDS011;8501;49.926;8.404;2023-05-28T00:27:07;11.00;;;5.07;;
16766;SDS011;8501;49.926;8.404;2023-05-28T00:29:33;12.35;;;5.93;;
16766;SDS011;8501;49.926;8.404;2023-05-28T00:31:58;9.20;;;4.70;;
16766;SDS011;8501;49.926;8.404;2023-05-28T00:34:24;10.48;;;5.38;;
16766;SDS011;8501;49.926;8.404;2023-05-28T00:36:50;10.30;;;4.97;;
16766;SDS011;8501;49.926;8.404;2023-05-28T00:39:16;9.30;;;5.32;;
16766;SDS011;8501;49.926;8.404;2023-05-28T00:41:42;10.45;;;5.22;;
16766;SDS011;8501;49.926;8.404;2023-05-28T00:44:08;9.05;;;5.25;;
16766;SDS011;8501;49.926;8.404;2023-05-28T00:46:34;7.38;;;4.85;;
16766;SDS011;8501;49.926;8.404;2023-05-28T00:49:00;10.68;;;5.60;;
16766;SDS011;8501;49.926;8.404;2023-05-28T00:51:26;10.45;;;5.53;;
16766;SDS011;8501;49.926;8.404;2023-05-28T00:53:52;8.30;;;4.65;;
16766;SDS011;8501;49.926;8.404;2023-05-28T00:56:18;8.00;;;4.72;;
16766;SDS011;8501;49.926;8.404;2023-05-28T00:58:44;9.88;;;5.30;;
16766;SDS011;8501;49.926;8.404;2023-05-28T01:01:13;11.98;;;5.80;;
16766;SDS011;8501;49.926;8.404;2023-05-28T01:03:39;8.98;;;5.10;;
16766;SDS011;8501;49.926;8.404;2023-05-28T01:06:06;9.18;;;5.10;;
16766;SDS011;8501;49.926;8.404;2023-05-28T01:08:34;9.52;;;5.03;;
16766;SDS011;8501;49.926;8.404;2023-05-28T01:11:01;9.05;;;4.93;;
16766;SDS011;8501;49.926;8.404;2023-05-28T01:13:27;12.63;;;5.43;;
16766;SDS011;8501;49.926;8.404;2023-05-28T01:15:53;10.40;;;4.95;;
16766;SDS011;8501;49.926;8.404;2023-05-28T01:18:19;7.40;;;4.93;;
16766;SDS011;8501;49.926;8.404;2023-05-28T01:20:45;8.07;;;4.82;;
16766;SDS011;8501;49.926;8.404;2023-05-28T01:23:11;9.60;;;4.97;;
16766;SDS011;8501;49.926;8.404;2023-05-28T01:25:41;8.57;;;4.63;;
16766;SDS011;8501;49.926;8.404;2023-05-28T01:28:12;9.50;;;5.00;;
16766;SDS011;8501;49.926;8.404;2023-05-28T01:30:38;12.10;;;5.20;;
16766;SDS011;8501;49.926;8.404;2023-05-28T01:33:04;8.93;;;5.10;;
16766;SDS011;8501;49.926;8.404;2023-05-28T01:35:31;8.68;;;4.90;;
16766;SDS011;8501;49.926;8.404;2023-05-28T01:37:56;9.10;;;4.95;;
16766;SDS011;8501;49.926;8.404;2023-05-28T01:40:26;8.32;;;5.10;;
16766;SDS011;8501;49.926;8.404;2023-05-28T01:42:52;7.60;;;5.10;;
16766;SDS011;8501;49.926;8.404;2023-05-28T01:45:20;8.20;;;4.70;;
16766;SDS011;8501;49.926;8.404;2023-05-28T01:47:47;12.95;;;5.30;;
16766;SDS011;8501;49.926;8.404;2023-05-28T01:50:13;8.85;;;5.25;;
16766;SDS011;8501;49.926;8.404;2023-05-28T01:52:39;11.38;;;5.35;;
16766;SDS011;8501;49.926;8.404;2023-05-28T01:55:05;7.72;;;5.00;;
16766;SDS011;8501;49.926;8.404;2023-05-28T01:57:33;10.48;;;5.18;;
16766;SDS011;8501;49.926;8.404;2023-05-28T01:59:59;9.50;;;4.75;;
16766;SDS011;8501;49.926;8.404;2023-05-28T02:02:26;8.70;;;4.90;;
16766;SDS011;8501;49.926;8.404;2023-05-28T02:04:52;8.45;;;4.63;;
16766;SDS011;8501;49.926;8.404;2023-05-28T02:07:18;7.35;;;4.72;;
16766;SDS011;8501;49.926;8.404;2023-05-28T02:09:44;9.75;;;5.18;;
16766;SDS011;8501;49.926;8.404;2023-05-28T02:12:10;8.50;;;4.63;;
16766;SDS011;8501;49.926;8.404;2023-05-28T02:14:36;9.75;;;5.10;;
16766;SDS011;8501;49.926;8.404;2023-05-28T02:17:02;9.25;;;4.78;;
16766;SDS011;8501;49.926;8.404;2023-05-28T02:19:27;8.77;;;4.80;;
16766;SDS011;8501;49.926;8.404;2023-05-28T02:21:53;9.70;;;5.00;;
16766;SDS011;8501;49.926;8.404;2023-05-28T02:24:20;8.52;;;4.85;;
16766;SDS011;8501;49.926;8.404;2023-05-28T02:26:46;9.40;;;4.97;;
16766;SDS011;8501;49.926;8.404;2023-05-28T02:29:12;8.38;;;4.70;;
16766;SDS011;8501;49.926;8.404;2023-05-28T02:31:38;8.00;;;4.88;;
16766;SDS011;8501;49.926;8.404;2023-05-28T02:34:03;8.55;;;4.70;;
16766;SDS011;8501;49.926;8.404;2023-05-28T02:36:29;11.25;;;5.05;;
16766;SDS011;8501;49.926;8.404;2023-05-28T02:38:55;8.40;;;4.70;;
16766;SDS011;8501;49.926;8.404;2023-05-28T02:41:20;8.88;;;5.45;;
16766;SDS011;8501;49.926;8.404;2023-05-28T02:43:46;11.55;;;5.28;;
16766;SDS011;8501;49.926;8.404;2023-05-28T02:46:11;7.50;;;4.83;;
16766;SDS011;8501;49.926;8.404;2023-05-28T02:48:37;9.15;;;4.95;;
16766;SDS011;8501;49.926;8.404;2023-05-28T02:51:03;9.25;;;4.90;;
16766;SDS011;8501;49.926;8.404;2023-05-28T02:53:29;9.55;;;4.90;;
16766;SDS011;8501;49.926;8.404;2023-05-28T02:55:59;8.85;;;5.00;;
16766;SDS011;8501;49.926;8.404;2023-05-28T02:58:25;11.02;;;4.72;;
16766;SDS011;8501;49.926;8.404;2023-05-28T03:00:50;10.07;;;4.78;;
16766;SDS011;8501;49.926;8.404;2023-05-28T03:03:16;8.33;;;5.03;;
16766;SDS011;8501;49.926;8.404;2023-05-28T03:05:42;7.43;;;4.90;;
16766;SDS011;8501;49.926;8.404;2023-05-28T03:08:07;9.23;;;4.63;;
16766;SDS011;8501;49.926;8.404;2023-05-28T03:10:33;9.27;;;5.30;;
16766;SDS011;8501;49.926;8.404;2023-05-28T03:12:58;9.47;;;5.43;;
16766;SDS011;8501;49.926;8.404;2023-05-28T03:15:25;10.27;;;4.90;;
16766;SDS011;8501;49.926;8.404;2023-05-28T03:17:52;8.53;;;5.00;;
16766;SDS011;8501;49.926;8.404;2023-05-28T03:20:18;9.53;;;4.80;;
16766;SDS011;8501;49.926;8.404;2023-05-28T03:22:45;9.05;;;5.22;;
16766;SDS011;8501;49.926;8.404;2023-05-28T03:25:12;9.02;;;5.10;;
16766;SDS011;8501;49.926;8.404;2023-05-28T03:27:37;8.63;;;4.77;;
16766;SDS011;8501;49.926;8.404;2023-05-28T03:30:03;10.52;;;5.20;;
16766;SDS011;8501;49.926;8.404;2023-05-28T03:32:29;8.93;;;5.40;;
16766;SDS011;8501;49.926;8.404;2023-05-28T03:34:54;9.25;;;5.22;;
16766;SDS011;8501;49.926;8.404;2023-05-28T03:37:20;9.77;;;5.53;;
16766;SDS011;8501;49.926;8.404;2023-05-28T03:39:45;8.43;;;5.13;;
16766;SDS011;8501;49.926;8.404;2023-05-28T03:42:11;9.50;;;5.03;;
16766;SDS011;8501;49.926;8.404;2023-05-28T03:44:37;9.63;;;5.10;;
16766;SDS011;8501;49.926;8.404;2023-05-28T03:47:02;11.70;;;5.37;;
16766;SDS011;8501;49.926;8.404;2023-05-28T03:49:28;8.20;;;5.37;;
16766;SDS011;8501;49.926;8.404;2023-05-28T03:51:53;8.13;;;5.20;;
16766;SDS011;8501;49.926;8.404;2023-05-28T03:54:19;8.70;;;5.53;;
16766;SDS011;8501;49.926;8.404;2023-05-28T03:56:45;8.03;;;5.30;;
16766;SDS011;8501;49.926;8.404;2023-05-28T03:59:10;10.67;;;5.50;;
16766;SDS011;8501;49.926;8.404;2023-05-28T04:01:35;9.80;;;5.40;;
16766;SDS011;8501;49.926;8.404;2023-05-28T04:04:02;9.70;;;5.83;;
16766;SDS011;8501;49.926;8.404;2023-05-28T04:06:28;9.23;;;5.50;;
16766;SDS011;8501;49.926;8.404;2023-05-28T04:08:53;8.80;;;5.53;;
16766;SDS011;8501;49.926;8.404;2023-05-28T04:11:19;10.63;;;5.60;;
16766;SDS011;8501;49.926;8.404;2023-05-28T04:13:46;9.47;;;5.30;;
16766;SDS011;8501;49.926;8.404;2023-05-28T04:16:13;12.97;;;5.33;;
16766;SDS011;8501;49.926;8.404;2023-05-28T04:18:38;13.03;;;5.77;;
16766;SDS011;8501;49.926;8.404;2023-05-28T04:21:04;11.83;;;5.80;;
16766;SDS011;8501;49.926;8.404;2023-05-28T04:23:30;10.17;;;5.37;;
16766;SDS011;8501;49.926;8.404;2023-05-28T04:25:56;11.30;;;5.73;;
16766;SDS011;8501;49.926;8.404;2023-05-28T04:28:21;12.50;;;5.70;;
16766;SDS011;8501;49.926;8.404;2023-05-28T04:30:52;11.63;;;5.67;;
16766;SDS011;8501;49.926;8.404;2023-05-28T04:33:19;9.23;;;5.67;;
16766;SDS011;8501;49.926;8.404;2023-05-28T04:35:45;8.93;;;5.67;;
16766;SDS011;8501;49.926;8.404;2023-05-28T04:38:11;10.47;;;6.13;;
16766;SDS011;8501;49.926;8.404;2023-05-28T04:40:37;7.57;;;5.17;;
16766;SDS011;8501;49.926;8.404;2023-05-28T04:43:03;10.23;;;5.67;;
16766;SDS011;8501;49.926;8.404;2023-05-28T04:45:28;8.70;;;5.30;;
16766;SDS011;8501;49.926;8.404;2023-05-28T04:47:54;11.77;;;5.80;;
16766;SDS011;8501;49.926;8.404;2023-05-28T04:50:19;10.73;;;5.53;;
16766;SDS011;8501;49.926;8.404;2023-05-28T04:52:45;9.43;;;5.77;;
16766;SDS011;8501;49.926;8.404;2023-05-28T04:55:10;10.87;;;5.53;;
16766;SDS011;8501;49.926;8.404;2023-05-28T04:57:37;11.80;;;6.20;;
16766;SDS011;8501;49.926;8.404;2023-05-28T05:00:02;10.67;;;5.57;;
16766;SDS011;8501;49.926;8.404;2023-05-28T05:02:28;10.50;;;5.80;;
16766;SDS011;8501;49.926;8.404;2023-05-28T05:04:54;8.90;;;5.27;;
16766;SDS011;8501;49.926;8.404;2023-05-28T05:07:21;9.97;;;5.13;;
16766;SDS011;8501;49.926;8.404;2023-05-28T05:09:47;10.53;;;5.20;;
16766;SDS011;8501;49.926;8.404;2023-05-28T05:12:13;9.00;;;5.10;;
16766;SDS011;8501;49.926;8.404;2023-05-28T05:14:38;10.50;;;5.47;;
16766;SDS011;8501;49.926;8.404;2023-05-28T05:17:04;10.20;;;5.37;;
16766;SDS011;8501;49.926;8.404;2023-05-28T05:19:33;9.83;;;5.83;;
16766;SDS011;8501;49.926;8.404;2023-05-28T05:21:59;11.87;;;5.20;;
16766;SDS011;8501;49.926;8.404;2023-05-28T05:24:25;10.90;;;5.33;;
16766;SDS011;8501;49.926;8.404;2023-05-28T05:26:50;9.98;;;5.20;;
16766;SDS011;8501;49.926;8.404;2023-05-28T05:29:16;8.30;;;5.23;;
16766;SDS011;8501;49.926;8.404;2023-05-28T05:31:41;8.07;;;5.30;;
16766;SDS011;8501;49.926;8.404;2023-05-28T05:34:07;9.63;;;5.03;;
16766;SDS011;8501;49.926;8.404;2023-05-28T05:36:32;6.93;;;4.70;;
16766;SDS011;8501;49.926;8.404;2023-05-28T05:38:58;7.20;;;5.03;;
16766;SDS011;8501;49.926;8.404;2023-05-28T05:41:23;8.53;;;4.90;;
16766;SDS011;8501;49.926;8.404;2023-05-28T05:43:50;8.10;;;4.60;;
16766;SDS011;8501;49.926;8.404;2023-05-28T05:46:15;9.88;;;5.47;;
16766;SDS011;8501;49.926;8.404;2023-05-28T05:48:41;7.97;;;4.70;;
16766;SDS011;8501;49.926;8.404;2023-05-28T05:51:06;6.97;;;4.67;;
16766;SDS011;8501;49.926;8.404;2023-05-28T05:53:32;9.77;;;5.13;;
16766;SDS011;8501;49.926;8.404;2023-05-28T05:56:04;9.27;;;4.80;;
16766;SDS011;8501;49.926;8.404;2023-05-28T05:58:29;9.13;;;4.72;;
16766;SDS011;8501;49.926;8.404;2023-05-28T06:00:56;8.75;;;4.95;;
16766;SDS011;8501;49.926;8.404;2023-05-28T06:03:22;8.50;;;4.95;;
16766;SDS011;8501;49.926;8.404;2023-05-28T06:05:49;8.80;;;4.85;;
16766;SDS011;8501;49.926;8.404;2023-05-28T06:08:15;7.80;;;4.90;;
16766;SDS011;8501;49.926;8.404;2023-05-28T06:10:40;10.77;;;5.10;;
16766;SDS011;8501;49.926;8.404;2023-05-28T06:13:06;9.33;;;4.60;;
16766;SDS011;8501;49.926;8.404;2023-05-28T06:15:31;8.63;;;4.65;;
16766;SDS011;8501;49.926;8.404;2023-05-28T06:17:57;8.50;;;4.57;;
16766;SDS011;8501;49.926;8.404;2023-05-28T06:20:23;7.95;;;4.93;;
16766;SDS011;8501;49.926;8.404;2023-05-28T06:22:49;7.20;;;4.43;;
16766;SDS011;8501;49.926;8.404;2023-05-28T06:25:15;8.57;;;4.10;;
16766;SDS011;8501;49.926;8.404;2023-05-28T06:27:41;8.27;;;4.70;;
16766;SDS011;8501;49.926;8.404;2023-05-28T06:30:07;9.30;;;4.63;;
16766;SDS011;8501;49.926;8.404;2023-05-28T06:32:33;8.82;;;5.10;;
16766;SDS011;8501;49.926;8.404;2023-05-28T06:34:58;7.78;;;4.40;;
16766;SDS011;8501;49.926;8.404;2023-05-28T06:37:25;6.18;;;4.40;;
16766;SDS011;8501;49.926;8.404;2023-05-28T06:39:51;9.88;;;4.72;;
16766;SDS011;8501;49.926;8.404;2023-05-28T06:42:16;7.72;;;4.40;;
16766;SDS011;8501;49.926;8.404;2023-05-28T06:44:42;8.15;;;4.32;;
16766;SDS011;8501;49.926;8.404;2023-05-28T06:47:08;8.93;;;4.63;;
16766;SDS011;8501;49.926;8.404;2023-05-28T06:49:33;9.32;;;4.43;;
16766;SDS011;8501;49.926;8.404;2023-05-28T06:51:59;7.90;;;4.20;;
16766;SDS011;8501;49.926;8.404;2023-05-28T06:54:24;8.25;;;4.80;;
16766;SDS011;8501;49.926;8.404;2023-05-28T06:56:50;7.97;;;4.22;;
16766;SDS011;8501;49.926;8.404;2023-05-28T06:59:15;8.00;;;4.53;;
16766;SDS011;8501;49.926;8.404;2023-05-28T07:01:41;8.98;;;4.45;;
16766;SDS011;8501;49.926;8.404;2023-05-28T07:04:06;8.90;;;4.70;;
16766;SDS011;8501;49.926;8.404;2023-05-28T07:06:32;8.90;;;4.13;;
16766;SDS011;8501;49.926;8.404;2023-05-28T07:08:58;6.47;;;4.13;;
16766;SDS011;8501;49.926;8.404;2023-05-28T07:11:24;7.88;;;4.50;;
16766;SDS011;8501;49.926;8.404;2023-05-28T07:13:51;9.10;;;4.00;;
16766;SDS011;8501;49.926;8.404;2023-05-28T07:16:18;9.05;;;4.55;;
16766;SDS011;8501;49.926;8.404;2023-05-28T07:18:44;9.18;;;4.65;;
16766;SDS011;8501;49.926;8.404;2023-05-28T07:21:09;8.80;;;4.50;;
16766;SDS011;8501;49.926;8.404;2023-05-28T07:23:35;6.53;;;4.35;;
16766;SDS011;8501;49.926;8.404;2023-05-28T07:26:01;10.65;;;4.40;;
16766;SDS011;8501;49.926;8.404;2023-05-28T07:28:26;8.50;;;4.43;;
16766;SDS011;8501;49.926;8.404;2023-05-28T07:30:52;9.00;;;4.40;;
16766;SDS011;8501;49.926;8.404;2023-05-28T07:33:17;6.57;;;4.60;;
16766;SDS011;8501;49.926;8.404;2023-05-28T07:35:43;6.57;;;4.20;;
16766;SDS011;8501;49.926;8.404;2023-05-28T07:38:09;7.07;;;4.40;;
16766;SDS011;8501;49.926;8.404;2023-05-28T07:40:35;8.80;;;4.72;;
16766;SDS011;8501;49.926;8.404;2023-05-28T07:43:01;8.23;;;4.60;;
16766;SDS011;8501;49.926;8.404;2023-05-28T07:45:27;7.43;;;3.97;;
16766;SDS011;8501;49.926;8.404;2023-05-28T07:47:52;10.85;;;4.82;;
16766;SDS011;8501;49.926;8.404;2023-05-28T07:50:18;8.32;;;4.25;;
16766;SDS011;8501;49.926;8.404;2023-05-28T07:52:43;8.63;;;4.70;;
16766;SDS011;8501;49.926;8.404;2023-05-28T07:55:09;7.88;;;4.22;;
16766;SDS011;8501;49.926;8.404;2023-05-28T07:57:35;8.15;;;4.47;;
16766;SDS011;8501;49.926;8.404;2023-05-28T08:00:01;8.60;;;4.47;;
16766;SDS011;8501;49.926;8.404;2023-05-28T08:02:31;9.13;;;4.53;;
16766;SDS011;8501;49.926;8.404;2023-05-28T08:04:56;9.23;;;5.05;;
16766;SDS011;8501;49.926;8.404;2023-05-28T08:07:22;8.57;;;4.40;;
16766;SDS011;8501;49.926;8.404;2023-05-28T08:09:47;7.38;;;4.22;;
16766;SDS011;8501;49.926;8.404;2023-05-28T08:12:13;9.48;;;4.68;;
16766;SDS011;8501;49.926;8.404;2023-05-28T08:14:38;7.53;;;4.63;;
16766;SDS011;8501;49.926;8.404;2023-05-28T08:17:04;8.43;;;4.63;;
16766;SDS011;8501;49.926;8.404;2023-05-28T08:19:29;7.80;;;4.63;;
16766;SDS011;8501;49.926;8.404;2023-05-28T08:21:55;7.97;;;4.50;;
16766;SDS011;8501;49.926;8.404;2023-05-28T08:24:21;8.90;;;5.10;;
16766;SDS011;8501;49.926;8.404;2023-05-28T08:26:46;8.48;;;4.43;;
16766;SDS011;8501;49.926;8.404;2023-05-28T08:29:12;8.82;;;4.75;;
16766;SDS011;8501;49.926;8.404;2023-05-28T08:31:37;9.02;;;4.82;;
16766;SDS011;8501;49.926;8.404;2023-05-28T08:34:03;6.88;;;4.60;;
16766;SDS011;8501;49.926;8.404;2023-05-28T08:36:29;6.90;;;5.07;;
16766;SDS011;8501;49.926;8.404;2023-05-28T08:38:54;9.93;;;4.75;;
16766;SDS011;8501;49.926;8.404;2023-05-28T08:41:20;8.07;;;4.60;;
16766;SDS011;8501;49.926;8.404;2023-05-28T08:43:46;6.97;;;4.30;;
16766;SDS011;8501;49.926;8.404;2023-05-28T08:46:12;8.10;;;4.40;;
16766;SDS011;8501;49.926;8.404;2023-05-28T08:48:40;8.13;;;4.75;;
16766;SDS011;8501;49.926;8.404;2023-05-28T08:51:06;8.90;;;5.18;;
16766;SDS011;8501;49.926;8.404;2023-05-28T08:53:35;8.85;;;4.90;;
16766;SDS011;8501;49.926;8.404;2023-05-28T08:56:05;9.40;;;4.88;;
16766;SDS011;8501;49.926;8.404;2023-05-28T08:58:33;9.57;;;4.88;;
16766;SDS011;8501;49.926;8.404;2023-05-28T09:01:03;8.13;;;4.63;;
16766;SDS011;8501;49.926;8.404;2023-05-28T09:03:31;6.63;;;4.22;;
16766;SDS011;8501;49.926;8.404;2023-05-28T09:05:58;8.52;;;4.72;;
16766;SDS011;8501;49.926;8.404;2023-05-28T09:08:23;9.18;;;4.40;;
16766;SDS011;8501;49.926;8.404;2023-05-28T09:10:49;8.23;;;4.60;;
16766;SDS011;8501;49.926;8.404;2023-05-28T09:13:14;10.48;;;4.70;;
16766;SDS011;8501;49.926;8.404;2023-05-28T09:15:49;9.50;;;5.05;;
16766;SDS011;8501;49.926;8.404;2023-05-28T09:18:21;8.48;;;4.55;;
16766;SDS011;8501;49.926;8.404;2023-05-28T09:20:48;9.20;;;4.47;;
16766;SDS011;8501;49.926;8.404;2023-05-28T09:23:15;7.50;;;4.78;;
16766;SDS011;8501;49.926;8.404;2023-05-28T09:25:41;8.00;;;4.55;;
16766;SDS011;8501;49.926;8.404;2023-05-28T09:28:09;9.98;;;4.57;;
16766;SDS011;8501;49.926;8.404;2023-05-28T09:30:37;9.35;;;4.60;;
16766;SDS011;8501;49.926;8.404;2023-05-28T09:33:03;9.10;;;4.55;;
16766;SDS011;8501;49.926;8.404;2023-05-28T09:35:30;8.55;;;4.80;;
16766;SDS011;8501;49.926;8.404;2023-05-28T09:38:00;6.88;;;4.20;;
16766;SDS011;8501;49.926;8.404;2023-05-28T09:40:37;11.07;;;4.65;;
16766;SDS011;8501;49.926;8.404;2023-05-28T09:43:06;8.40;;;4.57;;
16766;SDS011;8501;49.926;8.404;2023-05-28T09:45:32;7.82;;;4.53;;
16766;SDS011;8501;49.926;8.404;2023-05-28T09:48:01;10.05;;;4.97;;
16766;SDS011;8501;49.926;8.404;2023-05-28T09:50:27;8.82;;;4.50;;
16766;SDS011;8501;49.926;8.404;2023-05-28T09:52:56;9.18;;;4.70;;
16766;SDS011;8501;49.926;8.404;2023-05-28T09:55:24;9.57;;;4.82;;
16766;SDS011;8501;49.926;8.404;2023-05-28T09:58:01;8.55;;;4.85;;
16766;SDS011;8501;49.926;8.404;2023-05-28T10:00:30;7.25;;;4.30;;
16766;SDS011;8501;49.926;8.404;2023-05-28T10:06:08;8.70;;;4.78;;
16766;SDS011;8501;49.926;8.404;2023-05-28T10:08:37;6.93;;;4.53;;
16766;SDS011;8501;49.926;8.404;2023-05-28T10:11:11;10.15;;;5.30;;
16766;SDS011;8501;49.926;8.404;2023-05-28T10:13:40;8.18;;;4.50;;
16766;SDS011;8501;49.926;8.404;2023-05-28T10:16:06;6.25;;;4.47;;
16766;SDS011;8501;49.926;8.404;2023-05-28T10:18:32;7.05;;;4.50;;
16766;SDS011;8501;49.926;8.404;2023-05-28T10:21:00;8.02;;;4.53;;
16766;SDS011;8501;49.926;8.404;2023-05-28T10:23:26;6.50;;;4.28;;
16766;SDS011;8501;49.926;8.404;2023-05-28T10:25:52;8.32;;;4.75;;
16766;SDS011;8501;49.926;8.404;2023-05-28T10:28:19;7.40;;;4.35;;
16766;SDS011;8501;49.926;8.404;2023-05-28T10:30:45;7.22;;;4.28;;
16766;SDS011;8501;49.926;8.404;2023-05-28T10:33:11;9.05;;;4.60;;
16766;SDS011;8501;49.926;8.404;2023-05-28T10:35:51;10.18;;;5.00;;
16766;SDS011;8501;49.926;8.404;2023-05-28T10:41:17;8.50;;;4.65;;
16766;SDS011;8501;49.926;8.404;2023-05-28T10:43:46;8.55;;;4.40;;
16766;SDS011;8501;49.926;8.404;2023-05-28T10:49:04;9.05;;;4.63;;
16766;SDS011;8501;49.926;8.404;2023-05-28T10:51:51;6.57;;;4.38;;
16766;SDS011;8501;49.926;8.404;2023-05-28T10:57:05;10.05;;;4.72;;
16766;SDS011;8501;49.926;8.404;2023-05-28T10:59:38;6.05;;;4.43;;
16766;SDS011;8501;49.926;8.404;2023-05-28T11:02:12;7.35;;;4.60;;
16766;SDS011;8501;49.926;8.404;2023-05-28T11:04:41;7.75;;;4.90;;
16766;SDS011;8501;49.926;8.404;2023-05-28T11:07:07;9.13;;;4.57;;
16766;SDS011;8501;49.926;8.404;2023-05-28T11:09:33;7.95;;;4.70;;
16766;SDS011;8501;49.926;8.404;2023-05-28T11:11:59;6.68;;;4.55;;
16766;SDS011;8501;49.926;8.404;2023-05-28T11:14:33;7.63;;;5.00;;
16766;SDS011;8501;49.926;8.404;2023-05-28T11:17:09;8.98;;;4.90;;
16766;SDS011;8501;49.926;8.404;2023-05-28T11:19:39;7.13;;;4.57;;
16766;SDS011;8501;49.926;8.404;2023-05-28T11:22:06;7.88;;;4.50;;
16766;SDS011;8501;49.926;8.404;2023-05-28T11:24:32;6.47;;;4.65;;
16766;SDS011;8501;49.926;8.404;2023-05-28T11:27:13;8.38;;;4.85;;
16766;SDS011;8501;49.926;8.404;2023-05-28T11:29:38;9.40;;;4.60;;
16766;SDS011;8501;49.926;8.404;2023-05-28T11:32:04;9.88;;;5.00;;
16766;SDS011;8501;49.926;8.404;2023-05-28T11:34:30;7.43;;;4.57;;
16766;SDS011;8501;49.926;8.404;2023-05-28T11:36:56;8.48;;;4.53;;
16766;SDS011;8501;49.926;8.404;2023-05-28T11:39:21;7.05;;;4.30;;
16766;SDS011;8501;49.926;8.404;2023-05-28T11:41:48;7.57;;;4.88;;
16766;SDS011;8501;49.926;8.404;2023-05-28T11:44:20;8.27;;;4.82;;
16766;SDS011;8501;49.926;8.404;2023-05-28T11:46:49;6.65;;;4.53;;
16766;SDS011;8501;49.926;8.404;2023-05-28T11:49:16;8.57;;;4.95;;
16766;SDS011;8501;49.926;8.404;2023-05-28T11:51:41;6.80;;;4.38;;
16766;SDS011;8501;49.926;8.404;2023-05-28T11:54:07;7.30;;;4.53;;
16766;SDS011;8501;49.926;8.404;2023-05-28T11:56:33;9.23;;;5.10;;
16766;SDS011;8501;49.926;8.404;2023-05-28T11:59:00;9.30;;;5.20;;
16766;SDS011;8501;49.926;8.404;2023-05-28T12:01:26;7.53;;;4.57;;
16766;SDS011;8501;49.926;8.404;2023-05-28T12:04:01;7.03;;;4.80;;
16766;SDS011;8501;49.926;8.404;2023-05-28T12:06:32;7.90;;;4.72;;
16766;SDS011;8501;49.926;8.404;2023-05-28T12:09:02;9.30;;;4.95;;
16766;SDS011;8501;49.926;8.404;2023-05-28T12:11:28;8.15;;;4.93;;
16766;SDS011;8501;49.926;8.404;2023-05-28T12:13:54;8.40;;;5.25;;
16766;SDS011;8501;49.926;8.404;2023-05-28T12:16:19;9.32;;;5.07;;
16766;SDS011;8501;49.926;8.404;2023-05-28T12:18:45;8.93;;;5.32;;
16766;SDS011;8501;49.926;8.404;2023-05-28T12:21:11;8.18;;;5.18;;
16766;SDS011;8501;49.926;8.404;2023-05-28T12:23:37;9.10;;;5.57;;
16766;SDS011;8501;49.926;8.404;2023-05-28T12:26:02;8.93;;;5.38;;
16766;SDS011;8501;49.926;8.404;2023-05-28T12:28:33;6.70;;;4.85;;
16766;SDS011;8501;49.926;8.404;2023-05-28T12:31:02;7.03;;;4.95;;
16766;SDS011;8501;49.926;8.404;2023-05-28T12:33:27;9.20;;;4.80;;
16766;SDS011;8501;49.926;8.404;2023-05-28T12:35:53;13.32;;;6.50;;
16766;SDS011;8501;49.926;8.404;2023-05-28T12:38:18;10.98;;;6.80;;
16766;SDS011;8501;49.926;8.404;2023-05-28T12:40:44;9.27;;;5.47;;
16766;SDS011;8501;49.926;8.404;2023-05-28T12:43:10;8.02;;;5.63;;
16766;SDS011;8501;49.926;8.404;2023-05-28T12:45:35;9.48;;;5.45;;
16766;SDS011;8501;49.926;8.404;2023-05-28T12:48:01;8.85;;;5.35;;
16766;SDS011;8501;49.926;8.404;2023-05-28T12:50:27;16.35;;;9.57;;
16766;SDS011;8501;49.926;8.404;2023-05-28T12:52:52;14.18;;;8.52;;
16766;SDS011;8501;49.926;8.404;2023-05-28T12:55:18;9.85;;;6.47;;
16766;SDS011;8501;49.926;8.404;2023-05-28T12:57:44;8.80;;;6.03;;
16766;SDS011;8501;49.926;8.404;2023-05-28T13:00:10;11.98;;;7.18;;
16766;SDS011;8501;49.926;8.404;2023-05-28T13:02:37;10.73;;;6.00;;
16766;SDS011;8501;49.926;8.404;2023-05-28T13:05:03;9.93;;;5.93;;
16766;SDS011;8501;49.926;8.404;2023-05-28T13:07:29;8.43;;;5.47;;
16766;SDS011;8501;49.926;8.404;2023-05-28T13:09:54;10.35;;;5.18;;
16766;SDS011;8501;49.926;8.404;2023-05-28T13:12:20;9.80;;;5.57;;
16766;SDS011;8501;49.926;8.404;2023-05-28T13:14:45;9.27;;;5.53;;
16766;SDS011;8501;49.926;8.404;2023-05-28T13:17:11;10.02;;;5.45;;
16766;SDS011;8501;49.926;8.404;2023-05-28T13:19:36;8.40;;;5.13;;
16766;SDS011;8501;49.926;8.404;2023-05-28T13:22:02;9.00;;;5.43;;
16766;SDS011;8501;49.926;8.404;2023-05-28T13:24:27;8.68;;;5.60;;
16766;SDS011;8501;49.926;8.404;2023-05-28T13:26:53;7.68;;;5.20;;
16766;SDS011;8501;49.926;8.404;2023-05-28T13:29:18;9.40;;;5.47;;
16766;SDS011;8501;49.926;8.404;2023-05-28T13:31:44;14.32;;;5.70;;
16766;SDS011;8501;49.926;8.404;2023-05-28T13:34:09;9.57;;;5.55;;
16766;SDS011;8501;49.926;8.404;2023-05-28T13:36:35;10.13;;;5.78;;
16766;SDS011;8501;49.926;8.404;2023-05-28T13:39:01;8.60;;;5.22;;
16766;SDS011;8501;49.926;8.404;2023-05-28T13:41:28;9.60;;;5.38;;
16766;SDS011;8501;49.926;8.404;2023-05-28T13:43:54;8.60;;;5.38;;
16766;SDS011;8501;49.926;8.404;2023-05-28T13:46:20;8.82;;;6.00;;
16766;SDS011;8501;49.926;8.404;2023-05-28T13:48:46;9.00;;;5.70;;
16766;SDS011;8501;49.926;8.404;2023-05-28T13:51:12;8.70;;;5.28;;
16766;SDS011;8501;49.926;8.404;2023-05-28T13:53:38;7.85;;;5.38;;
16766;SDS011;8501;49.926;8.404;2023-05-28T13:56:03;8.77;;;5.28;;
16766;SDS011;8501;49.926;8.404;2023-05-28T13:58:29;8.13;;;5.45;;
16766;SDS011;8501;49.926;8.404;2023-05-28T14:00:55;8.90;;;5.75;;
16766;SDS011;8501;49.926;8.404;2023-05-28T14:03:21;10.73;;;6.13;;
16766;SDS011;8501;49.926;8.404;2023-05-28T14:05:46;7.30;;;5.75;;
16766;SDS011;8501;49.926;8.404;2023-05-28T14:08:12;8.40;;;5.95;;
16766;SDS011;8501;49.926;8.404;2023-05-28T14:10:37;8.90;;;5.20;;
16766;SDS011;8501;49.926;8.404;2023-05-28T14:13:03;7.32;;;5.22;;
16766;SDS011;8501;49.926;8.404;2023-05-28T14:15:28;9.43;;;5.68;;
16766;SDS011;8501;49.926;8.404;2023-05-28T14:17:54;8.30;;;5.68;;
16766;SDS011;8501;49.926;8.404;2023-05-28T14:20:20;8.07;;;5.60;;
16766;SDS011;8501;49.926;8.404;2023-05-28T14:22:45;10.73;;;5.85;;
16766;SDS011;8501;49.926;8.404;2023-05-28T14:25:11;8.88;;;5.47;;
16766;SDS011;8501;49.926;8.404;2023-05-28T14:27:37;7.72;;;5.65;;
16766;SDS011;8501;49.926;8.404;2023-05-28T14:30:03;9.52;;;5.50;;
16766;SDS011;8501;49.926;8.404;2023-05-28T14:32:29;8.15;;;5.47;;
16766;SDS011;8501;49.926;8.404;2023-05-28T14:34:54;10.00;;;5.78;;
16766;SDS011;8501;49.926;8.404;2023-05-28T14:37:20;9.10;;;5.35;;
16766;SDS011;8501;49.926;8.404;2023-05-28T14:39:46;8.23;;;5.72;;
16766;SDS011;8501;49.926;8.404;2023-05-28T14:42:11;8.90;;;5.55;;
16766;SDS011;8501;49.926;8.404;2023-05-28T14:44:36;8.93;;;6.00;;
16766;SDS011;8501;49.926;8.404;2023-05-28T14:47:02;9.82;;;5.85;;
16766;SDS011;8501;49.926;8.404;2023-05-28T14:49:28;7.60;;;5.97;;
16766;SDS011;8501;49.926;8.404;2023-05-28T14:51:54;9.23;;;5.65;;
16766;SDS011;8501;49.926;8.404;2023-05-28T14:54:21;9.00;;;5.63;;
16766;SDS011;8501;49.926;8.404;2023-05-28T14:56:47;12.93;;;6.05;;
16766;SDS011;8501;49.926;8.404;2023-05-28T14:59:13;10.43;;;5.88;;
16766;SDS011;8501;49.926;8.404;2023-05-28T15:01:38;9.15;;;5.75;;
16766;SDS011;8501;49.926;8.404;2023-05-28T15:04:04;8.20;;;5.65;;